sensor_id;sensor_type;location;lat;lon;timestamp;P1;durP1;ratioP1;P2;durP2;ratioP2
40729;SDS011;26418;50.070;8.436;2023-02-18T00:01:59;3.88;;;2.55;;
40729;SDS011;26418;50.070;8.436;2023-02-18T00:04:24;4.68;;;2.25;;
40729;SDS011;26418;50.070;8.436;2023-02-18T00:06:50;4.28;;;2.83;;
40729;SDS011;26418;50.070;8.436;2023-02-18T00:09:15;5.65;;;3.00;;
40729;SDS011;26418;50.070;8.436;2023-02-18T00:11:40;3.83;;;2.60;;
40729;SDS011;26418;50.070;8.436;2023-02-18T00:14:10;3.58;;;2.80;;
40729;SDS011;26418;50.070;8.436;2023-02-18T00:16:37;5.15;;;3.40;;
40729;SDS011;26418;50.070;8.436;2023-02-18T00:19:03;5.60;;;3.60;;
40729;SDS011;26418;50.070;8.436;2023-02-18T00:21:34;5.18;;;3.20;;
40729;SDS011;26418;50.070;8.436;2023-02-18T00:24:00;4.15;;;2.88;;
40729;SDS011;26418;50.070;8.436;2023-02-18T00:26:25;7.00;;;4.00;;
40729;SDS011;26418;50.070;8.436;2023-02-18T00:28:51;6.03;;;3.92;;
40729;SDS011;26418;50.070;8.436;2023-02-18T00:31:20;6.00;;;4.18;;
40729;SDS011;26418;50.070;8.436;2023-02-18T00:33:50;8.52;;;5.30;;
40729;SDS011;26418;50.070;8.436;2023-02-18T00:36:18;9.52;;;5.32;;
40729;SDS011;26418;50.070;8.436;2023-02-18T00:38:45;6.55;;;4.80;;
40729;SDS011;26418;50.070;8.436;2023-02-18T00:41:12;11.55;;;5.90;;
40729;SDS011;26418;50.070;8.436;2023-02-18T00:43:38;7.53;;;5.13;;
40729;SDS011;26418;50.070;8.436;2023-02-18T00:46:04;7.88;;;6.20;;
40729;SDS011;26418;50.070;8.436;2023-02-18T00:48:30;9.50;;;5.97;;
40729;SDS011;26418;50.070;8.436;2023-02-18T00:50:55;8.23;;;5.43;;
40729;SDS011;26418;50.070;8.436;2023-02-18T00:53:21;9.32;;;5.68;;
40729;SDS011;26418;50.070;8.436;2023-02-18T00:55:46;7.28;;;5.10;;
40729;SDS011;26418;50.070;8.436;2023-02-18T00:58:12;7.60;;;5.43;;
40729;SDS011;26418;50.070;8.436;2023-02-18T01:00:39;9.77;;;5.35;;
40729;SDS011;26418;50.070;8.436;2023-02-18T01:03:04;17.23;;;4.82;;
40729;SDS011;26418;50.070;8.436;2023-02-18T01:05:33;8.57;;;4.75;;
40729;SDS011;26418;50.070;8.436;2023-02-18T01:07:59;6.38;;;4.63;;
40729;SDS011;26418;50.070;8.436;2023-02-18T01:10:24;7.68;;;4.22;;
40729;SDS011;26418;50.070;8.436;2023-02-18T01:12:50;9.38;;;4.72;;
40729;SDS011;26418;50.070;8.436;2023-02-18T01:15:18;9.80;;;4.28;;
40729;SDS011;26418;50.070;8.436;2023-02-18T01:17:43;6.90;;;4.32;;
40729;SDS011;26418;50.070;8.436;2023-02-18T01:20:10;5.80;;;4.28;;
40729;SDS011;26418;50.070;8.436;2023-02-18T01:22:37;7.97;;;4.75;;
40729;SDS011;26418;50.070;8.436;2023-02-18T01:25:02;5.90;;;4.20;;
40729;SDS011;26418;50.070;8.436;2023-02-18T01:27:28;5.68;;;3.60;;
40729;SDS011;26418;50.070;8.436;2023-02-18T01:29:54;5.65;;;3.63;;
40729;SDS011;26418;50.070;8.436;2023-02-18T01:32:19;5.40;;;3.63;;
40729;SDS011;26418;50.070;8.436;2023-02-18T01:34:45;7.95;;;3.22;;
40729;SDS011;26418;50.070;8.436;2023-02-18T01:37:11;8.15;;;4.32;;
40729;SDS011;26418;50.070;8.436;2023-02-18T01:39:37;4.32;;;3.33;;
40729;SDS011;26418;50.070;8.436;2023-02-18T01:42:02;4.93;;;3.05;;
40729;SDS011;26418;50.070;8.436;2023-02-18T01:44:28;5.95;;;2.83;;
40729;SDS011;26418;50.070;8.436;2023-02-18T01:46:54;3.38;;;2.38;;
40729;SDS011;26418;50.070;8.436;2023-02-18T01:49:22;4.60;;;3.13;;
40729;SDS011;26418;50.070;8.436;2023-02-18T01:54:49;3.40;;;2.05;;
40729;SDS011;26418;50.070;8.436;2023-02-18T01:57:23;2.30;;;1.53;;
40729;SDS011;26418;50.070;8.436;2023-02-18T02:00:04;3.55;;;1.77;;
40729;SDS011;26418;50.070;8.436;2023-02-18T02:02:32;3.42;;;1.50;;
40729;SDS011;26418;50.070;8.436;2023-02-18T02:05:01;1.50;;;1.35;;
40729;SDS011;26418;50.070;8.436;2023-02-18T02:07:27;4.68;;;1.70;;
40729;SDS011;26418;50.070;8.436;2023-02-18T02:09:53;2.65;;;1.55;;
40729;SDS011;26418;50.070;8.436;2023-02-18T02:15:33;2.40;;;1.30;;
40729;SDS011;26418;50.070;8.436;2023-02-18T02:25:57;1.63;;;1.10;;
40729;SDS011;26418;50.070;8.436;2023-02-18T02:28:51;2.88;;;0.90;;
40729;SDS011;26418;50.070;8.436;2023-02-18T02:31:51;1.90;;;0.90;;
40729;SDS011;26418;50.070;8.436;2023-02-18T02:48:37;1.70;;;0.63;;
40729;SDS011;26418;50.070;8.436;2023-02-18T02:56:40;1.38;;;0.47;;
40729;SDS011;26418;50.070;8.436;2023-02-18T02:59:06;1.77;;;0.75;;
40729;SDS011;26418;50.070;8.436;2023-02-18T03:10:38;1.98;;;0.80;;
40729;SDS011;26418;50.070;8.436;2023-02-18T03:13:32;0.60;;;0.60;;
40729;SDS011;26418;50.070;8.436;2023-02-18T03:18:51;0.73;;;0.47;;
40729;SDS011;26418;50.070;8.436;2023-02-18T03:21:28;0.93;;;0.73;;
40729;SDS011;26418;50.070;8.436;2023-02-18T03:24:02;0.60;;;0.50;;
40729;SDS011;26418;50.070;8.436;2023-02-18T03:26:33;1.33;;;0.57;;
40729;SDS011;26418;50.070;8.436;2023-02-18T03:29:02;1.65;;;0.77;;
40729;SDS011;26418;50.070;8.436;2023-02-18T03:31:31;0.93;;;0.50;;
40729;SDS011;26418;50.070;8.436;2023-02-18T03:34:06;1.83;;;0.60;;
40729;SDS011;26418;50.070;8.436;2023-02-18T03:36:36;0.73;;;0.30;;
40729;SDS011;26418;50.070;8.436;2023-02-18T03:39:06;1.40;;;0.52;;
40729;SDS011;26418;50.070;8.436;2023-02-18T03:41:34;3.17;;;0.60;;
40729;SDS011;26418;50.070;8.436;2023-02-18T03:44:01;1.13;;;0.63;;
40729;SDS011;26418;50.070;8.436;2023-02-18T03:46:28;1.30;;;0.68;;
40729;SDS011;26418;50.070;8.436;2023-02-18T03:48:54;3.03;;;1.80;;
40729;SDS011;26418;50.070;8.436;2023-02-18T03:51:20;1.73;;;1.30;;
40729;SDS011;26418;50.070;8.436;2023-02-18T03:53:46;2.67;;;1.60;;
40729;SDS011;26418;50.070;8.436;2023-02-18T03:56:12;1.30;;;1.02;;
40729;SDS011;26418;50.070;8.436;2023-02-18T03:58:39;2.33;;;0.90;;
40729;SDS011;26418;50.070;8.436;2023-02-18T04:01:04;3.30;;;0.80;;
40729;SDS011;26418;50.070;8.436;2023-02-18T04:03:30;0.80;;;0.50;;
40729;SDS011;26418;50.070;8.436;2023-02-18T04:05:55;1.40;;;0.70;;
40729;SDS011;26418;50.070;8.436;2023-02-18T04:08:21;2.40;;;1.05;;
40729;SDS011;26418;50.070;8.436;2023-02-18T04:10:46;1.27;;;0.90;;
40729;SDS011;26418;50.070;8.436;2023-02-18T04:13:12;6.78;;;1.00;;
40729;SDS011;26418;50.070;8.436;2023-02-18T04:15:37;1.55;;;1.00;;
40729;SDS011;26418;50.070;8.436;2023-02-18T04:18:03;1.80;;;0.60;;
40729;SDS011;26418;50.070;8.436;2023-02-18T04:20:28;0.73;;;0.60;;
40729;SDS011;26418;50.070;8.436;2023-02-18T04:22:53;1.13;;;0.63;;
40729;SDS011;26418;50.070;8.436;2023-02-18T04:25:19;1.15;;;0.90;;
40729;SDS011;26418;50.070;8.436;2023-02-18T04:27:44;1.48;;;0.50;;
40729;SDS011;26418;50.070;8.436;2023-02-18T04:30:09;1.00;;;0.65;;
40729;SDS011;26418;50.070;8.436;2023-02-18T04:32:35;2.08;;;0.85;;
40729;SDS011;26418;50.070;8.436;2023-02-18T04:35:01;1.25;;;0.60;;
40729;SDS011;26418;50.070;8.436;2023-02-18T04:37:26;1.38;;;0.60;;
40729;SDS011;26418;50.070;8.436;2023-02-18T04:39:51;1.73;;;0.80;;
40729;SDS011;26418;50.070;8.436;2023-02-18T04:42:17;2.17;;;0.75;;
40729;SDS011;26418;50.070;8.436;2023-02-18T04:44:42;1.13;;;0.70;;
40729;SDS011;26418;50.070;8.436;2023-02-18T04:47:07;1.10;;;0.70;;
40729;SDS011;26418;50.070;8.436;2023-02-18T04:49:33;2.35;;;0.93;;
40729;SDS011;26418;50.070;8.436;2023-02-18T04:51:58;1.13;;;0.60;;
40729;SDS011;26418;50.070;8.436;2023-02-18T04:54:23;1.60;;;0.70;;
40729;SDS011;26418;50.070;8.436;2023-02-18T04:56:49;1.80;;;0.63;;
40729;SDS011;26418;50.070;8.436;2023-02-18T04:59:14;1.58;;;0.80;;
40729;SDS011;26418;50.070;8.436;2023-02-18T05:01:39;1.52;;;0.77;;
40729;SDS011;26418;50.070;8.436;2023-02-18T05:04:05;1.98;;;1.10;;
40729;SDS011;26418;50.070;8.436;2023-02-18T05:06:30;1.15;;;0.90;;
40729;SDS011;26418;50.070;8.436;2023-02-18T05:08:56;1.92;;;0.80;;
40729;SDS011;26418;50.070;8.436;2023-02-18T05:11:21;1.48;;;0.82;;
40729;SDS011;26418;50.070;8.436;2023-02-18T05:13:46;1.20;;;0.70;;
40729;SDS011;26418;50.070;8.436;2023-02-18T05:16:12;1.90;;;0.60;;
40729;SDS011;26418;50.070;8.436;2023-02-18T05:18:37;0.93;;;0.40;;
40729;SDS011;26418;50.070;8.436;2023-02-18T05:21:03;0.80;;;0.40;;
40729;SDS011;26418;50.070;8.436;2023-02-18T05:23:28;0.65;;;0.40;;
40729;SDS011;26418;50.070;8.436;2023-02-18T05:25:54;0.82;;;0.30;;
40729;SDS011;26418;50.070;8.436;2023-02-18T05:28:19;0.98;;;0.50;;
40729;SDS011;26418;50.070;8.436;2023-02-18T05:30:45;1.48;;;0.30;;
40729;SDS011;26418;50.070;8.436;2023-02-18T05:33:10;0.70;;;0.30;;
40729;SDS011;26418;50.070;8.436;2023-02-18T05:35:35;0.52;;;0.28;;
40729;SDS011;26418;50.070;8.436;2023-02-18T05:38:01;0.93;;;0.50;;
40729;SDS011;26418;50.070;8.436;2023-02-18T05:40:26;1.25;;;0.50;;
40729;SDS011;26418;50.070;8.436;2023-02-18T05:42:51;0.90;;;0.40;;
40729;SDS011;26418;50.070;8.436;2023-02-18T05:45:17;0.50;;;0.30;;
40729;SDS011;26418;50.070;8.436;2023-02-18T05:47:42;0.63;;;0.47;;
40729;SDS011;26418;50.070;8.436;2023-02-18T05:50:07;1.30;;;0.50;;
40729;SDS011;26418;50.070;8.436;2023-02-18T05:52:33;0.95;;;0.50;;
40729;SDS011;26418;50.070;8.436;2023-02-18T05:54:58;1.13;;;0.52;;
40729;SDS011;26418;50.070;8.436;2023-02-18T05:57:23;2.47;;;0.57;;
40729;SDS011;26418;50.070;8.436;2023-02-18T05:59:49;1.75;;;0.50;;
40729;SDS011;26418;50.070;8.436;2023-02-18T06:02:14;2.13;;;0.40;;
40729;SDS011;26418;50.070;8.436;2023-02-18T06:04:40;0.68;;;0.40;;
40729;SDS011;26418;50.070;8.436;2023-02-18T06:07:05;0.57;;;0.50;;
40729;SDS011;26418;50.070;8.436;2023-02-18T06:09:31;1.30;;;0.40;;
40729;SDS011;26418;50.070;8.436;2023-02-18T06:11:56;0.57;;;0.47;;
40729;SDS011;26418;50.070;8.436;2023-02-18T06:14:21;0.80;;;0.47;;
40729;SDS011;26418;50.070;8.436;2023-02-18T06:16:47;1.40;;;0.70;;
40729;SDS011;26418;50.070;8.436;2023-02-18T06:19:12;1.85;;;0.80;;
40729;SDS011;26418;50.070;8.436;2023-02-18T06:21:37;4.28;;;1.13;;
40729;SDS011;26418;50.070;8.436;2023-02-18T06:24:03;3.13;;;1.10;;
40729;SDS011;26418;50.070;8.436;2023-02-18T06:26:28;2.88;;;1.13;;
40729;SDS011;26418;50.070;8.436;2023-02-18T06:28:54;2.83;;;1.30;;
40729;SDS011;26418;50.070;8.436;2023-02-18T06:31:19;1.73;;;1.30;;
40729;SDS011;26418;50.070;8.436;2023-02-18T06:33:44;1.55;;;1.00;;
40729;SDS011;26418;50.070;8.436;2023-02-18T06:36:10;2.92;;;1.27;;
40729;SDS011;26418;50.070;8.436;2023-02-18T06:38:38;1.80;;;1.20;;
40729;SDS011;26418;50.070;8.436;2023-02-18T06:41:05;1.80;;;1.27;;
40729;SDS011;26418;50.070;8.436;2023-02-18T06:43:30;1.80;;;1.27;;
40729;SDS011;26418;50.070;8.436;2023-02-18T06:45:56;1.70;;;1.50;;
40729;SDS011;26418;50.070;8.436;2023-02-18T06:48:22;3.63;;;1.92;;
40729;SDS011;26418;50.070;8.436;2023-02-18T06:50:48;4.70;;;1.85;;
40729;SDS011;26418;50.070;8.436;2023-02-18T06:53:13;2.20;;;2.00;;
40729;SDS011;26418;50.070;8.436;2023-02-18T06:55:41;3.40;;;1.95;;
40729;SDS011;26418;50.070;8.436;2023-02-18T06:58:07;3.20;;;1.58;;
40729;SDS011;26418;50.070;8.436;2023-02-18T07:00:34;2.15;;;1.77;;
40729;SDS011;26418;50.070;8.436;2023-02-18T07:02:59;2.58;;;2.08;;
40729;SDS011;26418;50.070;8.436;2023-02-18T07:05:25;5.03;;;2.97;;
40729;SDS011;26418;50.070;8.436;2023-02-18T07:07:50;2.65;;;2.00;;
40729;SDS011;26418;50.070;8.436;2023-02-18T07:10:15;3.95;;;2.10;;
40729;SDS011;26418;50.070;8.436;2023-02-18T07:12:41;3.90;;;2.25;;
40729;SDS011;26418;50.070;8.436;2023-02-18T07:15:06;3.03;;;2.22;;
40729;SDS011;26418;50.070;8.436;2023-02-18T07:17:32;2.90;;;2.17;;
40729;SDS011;26418;50.070;8.436;2023-02-18T07:19:57;3.40;;;1.90;;
40729;SDS011;26418;50.070;8.436;2023-02-18T07:22:24;2.58;;;1.85;;
40729;SDS011;26418;50.070;8.436;2023-02-18T07:24:50;5.10;;;2.10;;
40729;SDS011;26418;50.070;8.436;2023-02-18T07:27:16;2.22;;;1.63;;
40729;SDS011;26418;50.070;8.436;2023-02-18T07:29:42;2.47;;;1.33;;
40729;SDS011;26418;50.070;8.436;2023-02-18T07:32:07;2.08;;;1.30;;
40729;SDS011;26418;50.070;8.436;2023-02-18T07:34:36;1.83;;;1.40;;
40729;SDS011;26418;50.070;8.436;2023-02-18T07:37:01;2.35;;;1.40;;
40729;SDS011;26418;50.070;8.436;2023-02-18T07:39:26;1.75;;;1.15;;
40729;SDS011;26418;50.070;8.436;2023-02-18T07:41:52;2.33;;;1.25;;
40729;SDS011;26418;50.070;8.436;2023-02-18T07:44:17;4.38;;;1.20;;
40729;SDS011;26418;50.070;8.436;2023-02-18T07:46:42;2.85;;;1.48;;
40729;SDS011;26418;50.070;8.436;2023-02-18T07:49:08;2.05;;;1.38;;
40729;SDS011;26418;50.070;8.436;2023-02-18T07:51:33;1.55;;;0.98;;
40729;SDS011;26418;50.070;8.436;2023-02-18T07:53:59;2.45;;;1.70;;
40729;SDS011;26418;50.070;8.436;2023-02-18T07:56:24;4.03;;;1.70;;
40729;SDS011;26418;50.070;8.436;2023-02-18T07:58:50;4.40;;;1.98;;
40729;SDS011;26418;50.070;8.436;2023-02-18T08:01:15;1.92;;;1.45;;
40729;SDS011;26418;50.070;8.436;2023-02-18T08:03:41;2.58;;;1.88;;
40729;SDS011;26418;50.070;8.436;2023-02-18T08:06:06;5.40;;;1.95;;
40729;SDS011;26418;50.070;8.436;2023-02-18T08:08:33;3.20;;;2.03;;
40729;SDS011;26418;50.070;8.436;2023-02-18T08:11:00;5.47;;;2.28;;
40729;SDS011;26418;50.070;8.436;2023-02-18T08:13:27;3.45;;;2.15;;
40729;SDS011;26418;50.070;8.436;2023-02-18T08:15:54;2.63;;;1.95;;
40729;SDS011;26418;50.070;8.436;2023-02-18T08:18:21;3.65;;;2.13;;
40729;SDS011;26418;50.070;8.436;2023-02-18T08:20:47;4.97;;;2.20;;
40729;SDS011;26418;50.070;8.436;2023-02-18T08:23:13;3.67;;;2.10;;
40729;SDS011;26418;50.070;8.436;2023-02-18T08:25:40;4.28;;;2.28;;
40729;SDS011;26418;50.070;8.436;2023-02-18T08:28:10;3.08;;;2.10;;
40729;SDS011;26418;50.070;8.436;2023-02-18T08:30:35;4.38;;;1.55;;
40729;SDS011;26418;50.070;8.436;2023-02-18T08:33:00;4.85;;;1.80;;
40729;SDS011;26418;50.070;8.436;2023-02-18T08:35:26;2.80;;;1.70;;
40729;SDS011;26418;50.070;8.436;2023-02-18T08:37:51;3.38;;;2.00;;
40729;SDS011;26418;50.070;8.436;2023-02-18T08:40:16;4.90;;;1.98;;
40729;SDS011;26418;50.070;8.436;2023-02-18T08:42:42;3.83;;;2.63;;
40729;SDS011;26418;50.070;8.436;2023-02-18T08:45:07;4.18;;;2.30;;
40729;SDS011;26418;50.070;8.436;2023-02-18T08:47:33;3.33;;;2.50;;
40729;SDS011;26418;50.070;8.436;2023-02-18T08:49:58;3.97;;;2.60;;
40729;SDS011;26418;50.070;8.436;2023-02-18T08:52:23;2.92;;;1.85;;
40729;SDS011;26418;50.070;8.436;2023-02-18T08:54:49;3.55;;;2.05;;
40729;SDS011;26418;50.070;8.436;2023-02-18T08:57:14;8.27;;;2.30;;
40729;SDS011;26418;50.070;8.436;2023-02-18T08:59:39;4.68;;;1.92;;
40729;SDS011;26418;50.070;8.436;2023-02-18T09:02:05;4.60;;;1.90;;
40729;SDS011;26418;50.070;8.436;2023-02-18T09:04:30;2.78;;;1.98;;
40729;SDS011;26418;50.070;8.436;2023-02-18T09:06:56;3.05;;;1.67;;
40729;SDS011;26418;50.070;8.436;2023-02-18T09:09:21;3.83;;;1.98;;
40729;SDS011;26418;50.070;8.436;2023-02-18T09:11:47;2.00;;;1.45;;
40729;SDS011;26418;50.070;8.436;2023-02-18T09:14:12;3.03;;;1.90;;
40729;SDS011;26418;50.070;8.436;2023-02-18T09:16:38;1.55;;;1.10;;
40729;SDS011;26418;50.070;8.436;2023-02-18T09:19:05;2.38;;;1.42;;
40729;SDS011;26418;50.070;8.436;2023-02-18T09:21:31;4.18;;;1.90;;
40729;SDS011;26418;50.070;8.436;2023-02-18T09:23:57;3.35;;;1.95;;
40729;SDS011;26418;50.070;8.436;2023-02-18T09:26:23;2.30;;;1.30;;
40729;SDS011;26418;50.070;8.436;2023-02-18T09:28:50;2.35;;;1.30;;
40729;SDS011;26418;50.070;8.436;2023-02-18T09:31:18;1.67;;;1.20;;
40729;SDS011;26418;50.070;8.436;2023-02-18T09:33:46;1.77;;;1.20;;
40729;SDS011;26418;50.070;8.436;2023-02-18T09:36:14;2.25;;;1.17;;
40729;SDS011;26418;50.070;8.436;2023-02-18T09:38:40;3.20;;;1.77;;
40729;SDS011;26418;50.070;8.436;2023-02-18T09:41:07;3.55;;;1.23;;
40729;SDS011;26418;50.070;8.436;2023-02-18T09:43:40;3.67;;;1.52;;
40729;SDS011;26418;50.070;8.436;2023-02-18T09:46:20;2.15;;;1.20;;
40729;SDS011;26418;50.070;8.436;2023-02-18T09:48:49;1.52;;;0.90;;
40729;SDS011;26418;50.070;8.436;2023-02-18T09:51:16;1.50;;;1.00;;
40729;SDS011;26418;50.070;8.436;2023-02-18T09:53:43;2.58;;;0.80;;
40729;SDS011;26418;50.070;8.436;2023-02-18T09:56:13;1.83;;;0.80;;
40729;SDS011;26418;50.070;8.436;2023-02-18T10:01:27;1.60;;;0.80;;
40729;SDS011;26418;50.070;8.436;2023-02-18T10:03:59;0.65;;;0.60;;
40729;SDS011;26418;50.070;8.436;2023-02-18T10:06:30;2.05;;;0.68;;
40729;SDS011;26418;50.070;8.436;2023-02-18T10:09:05;3.97;;;2.03;;
40729;SDS011;26418;50.070;8.436;2023-02-18T10:12:06;1.58;;;1.10;;
40729;SDS011;26418;50.070;8.436;2023-02-18T10:14:39;3.03;;;1.40;;
40729;SDS011;26418;50.070;8.436;2023-02-18T10:17:04;1.05;;;0.80;;
40729;SDS011;26418;50.070;8.436;2023-02-18T10:19:33;2.15;;;0.98;;
40729;SDS011;26418;50.070;8.436;2023-02-18T10:22:02;2.05;;;0.50;;
40729;SDS011;26418;50.070;8.436;2023-02-18T10:24:34;1.30;;;0.47;;
40729;SDS011;26418;50.070;8.436;2023-02-18T10:27:01;0.90;;;0.40;;
40729;SDS011;26418;50.070;8.436;2023-02-18T10:29:29;3.50;;;0.40;;
40729;SDS011;26418;50.070;8.436;2023-02-18T10:32:06;1.00;;;0.43;;
40729;SDS011;26418;50.070;8.436;2023-02-18T10:34:42;1.10;;;0.60;;
40729;SDS011;26418;50.070;8.436;2023-02-18T10:40:05;0.93;;;0.35;;
40729;SDS011;26418;50.070;8.436;2023-02-18T10:47:45;0.30;;;0.30;;
40729;SDS011;26418;50.070;8.436;2023-02-18T10:50:34;0.47;;;0.25;;
40729;SDS011;26418;50.070;8.436;2023-02-18T10:53:09;5.78;;;2.15;;
40729;SDS011;26418;50.070;8.436;2023-02-18T10:55:41;4.47;;;0.50;;
40729;SDS011;26418;50.070;8.436;2023-02-18T11:00:57;0.90;;;0.40;;
40729;SDS011;26418;50.070;8.436;2023-02-18T11:03:25;0.80;;;0.35;;
40729;SDS011;26418;50.070;8.436;2023-02-18T11:06:02;3.40;;;0.32;;
40729;SDS011;26418;50.070;8.436;2023-02-18T11:08:29;0.28;;;0.28;;
40729;SDS011;26418;50.070;8.436;2023-02-18T11:11:20;1.13;;;0.40;;
40729;SDS011;26418;50.070;8.436;2023-02-18T11:13:56;0.85;;;0.43;;
40729;SDS011;26418;50.070;8.436;2023-02-18T11:19:35;1.80;;;0.70;;
40729;SDS011;26418;50.070;8.436;2023-02-18T11:22:17;2.17;;;0.43;;
40729;SDS011;26418;50.070;8.436;2023-02-18T11:24:45;2.22;;;0.30;;
40729;SDS011;26418;50.070;8.436;2023-02-18T11:27:17;1.63;;;0.57;;
40729;SDS011;26418;50.070;8.436;2023-02-18T11:29:51;3.22;;;0.80;;
40729;SDS011;26418;50.070;8.436;2023-02-18T11:32:19;4.60;;;0.90;;
40729;SDS011;26418;50.070;8.436;2023-02-18T11:34:45;2.08;;;0.60;;
40729;SDS011;26418;50.070;8.436;2023-02-18T11:37:12;1.02;;;0.50;;
40729;SDS011;26418;50.070;8.436;2023-02-18T11:39:43;2.00;;;0.57;;
40729;SDS011;26418;50.070;8.436;2023-02-18T11:42:12;1.15;;;0.75;;
40729;SDS011;26418;50.070;8.436;2023-02-18T11:47:19;3.95;;;0.75;;
40729;SDS011;26418;50.070;8.436;2023-02-18T11:50:01;5.50;;;1.58;;
40729;SDS011;26418;50.070;8.436;2023-02-18T11:52:33;3.90;;;0.98;;
40729;SDS011;26418;50.070;8.436;2023-02-18T11:55:13;3.88;;;0.75;;
40729;SDS011;26418;50.070;8.436;2023-02-18T11:57:42;1.20;;;0.85;;
40729;SDS011;26418;50.070;8.436;2023-02-18T12:00:16;5.78;;;1.00;;
40729;SDS011;26418;50.070;8.436;2023-02-18T12:10:22;6.65;;;1.17;;
40729;SDS011;26418;50.070;8.436;2023-02-18T12:27:21;2.83;;;1.00;;
40729;SDS011;26418;50.070;8.436;2023-02-18T12:30:27;3.35;;;0.90;;
40729;SDS011;26418;50.070;8.436;2023-02-18T12:33:46;3.63;;;1.20;;
40729;SDS011;26418;50.070;8.436;2023-02-18T12:41:46;3.60;;;0.93;;
40729;SDS011;26418;50.070;8.436;2023-02-18T12:52:26;2.22;;;0.73;;
40729;SDS011;26418;50.070;8.436;2023-02-18T12:55:11;2.80;;;1.00;;
40729;SDS011;26418;50.070;8.436;2023-02-18T12:57:47;2.55;;;0.88;;
40729;SDS011;26418;50.070;8.436;2023-02-18T13:08:23;3.10;;;1.00;;
40729;SDS011;26418;50.070;8.436;2023-02-18T13:11:18;4.93;;;1.25;;
40729;SDS011;26418;50.070;8.436;2023-02-18T13:16:18;5.00;;;1.55;;
40729;SDS011;26418;50.070;8.436;2023-02-18T13:18:49;1.98;;;1.42;;
40729;SDS011;26418;50.070;8.436;2023-02-18T13:21:24;2.67;;;1.52;;
40729;SDS011;26418;50.070;8.436;2023-02-18T13:23:52;5.28;;;1.27;;
40729;SDS011;26418;50.070;8.436;2023-02-18T13:26:21;3.72;;;1.25;;
40729;SDS011;26418;50.070;8.436;2023-02-18T13:34:57;2.03;;;1.50;;
40729;SDS011;26418;50.070;8.436;2023-02-18T13:37:33;2.58;;;1.50;;
40729;SDS011;26418;50.070;8.436;2023-02-18T13:40:15;3.67;;;1.98;;
40729;SDS011;26418;50.070;8.436;2023-02-18T13:42:45;4.50;;;2.17;;
40729;SDS011;26418;50.070;8.436;2023-02-18T13:45:23;5.72;;;1.67;;
40729;SDS011;26418;50.070;8.436;2023-02-18T13:47:51;5.07;;;2.23;;
40729;SDS011;26418;50.070;8.436;2023-02-18T13:52:46;6.63;;;2.00;;
40729;SDS011;26418;50.070;8.436;2023-02-18T13:55:22;4.55;;;2.03;;
40729;SDS011;26418;50.070;8.436;2023-02-18T13:57:52;4.18;;;1.73;;
40729;SDS011;26418;50.070;8.436;2023-02-18T14:00:20;2.78;;;1.60;;
40729;SDS011;26418;50.070;8.436;2023-02-18T14:02:55;3.30;;;1.85;;
40729;SDS011;26418;50.070;8.436;2023-02-18T14:05:36;5.57;;;1.80;;
40729;SDS011;26418;50.070;8.436;2023-02-18T14:13:42;2.30;;;1.35;;
40729;SDS011;26418;50.070;8.436;2023-02-18T14:16:12;3.10;;;1.25;;
40729;SDS011;26418;50.070;8.436;2023-02-18T14:21:49;2.17;;;1.40;;
40729;SDS011;26418;50.070;8.436;2023-02-18T14:24:10;2.85;;;1.13;;
40729;SDS011;26418;50.070;8.436;2023-02-18T14:26:44;2.67;;;1.40;;
40729;SDS011;26418;50.070;8.436;2023-02-18T14:29:13;10.10;;;2.78;;
40729;SDS011;26418;50.070;8.436;2023-02-18T14:31:55;3.17;;;1.40;;
40729;SDS011;26418;50.070;8.436;2023-02-18T14:34:33;2.17;;;1.52;;
40729;SDS011;26418;50.070;8.436;2023-02-18T14:37:09;3.70;;;1.60;;
40729;SDS011;26418;50.070;8.436;2023-02-18T14:50:42;2.20;;;0.98;;
40729;SDS011;26418;50.070;8.436;2023-02-18T14:53:13;2.13;;;1.08;;
40729;SDS011;26418;50.070;8.436;2023-02-18T14:55:48;2.85;;;1.00;;
40729;SDS011;26418;50.070;8.436;2023-02-18T15:00:54;3.35;;;1.27;;
40729;SDS011;26418;50.070;8.436;2023-02-18T15:03:20;4.45;;;1.02;;
40729;SDS011;26418;50.070;8.436;2023-02-18T15:05:47;0.93;;;0.57;;
40729;SDS011;26418;50.070;8.436;2023-02-18T15:08:16;4.38;;;1.05;;
40729;SDS011;26418;50.070;8.436;2023-02-18T15:15:51;3.72;;;2.38;;
40729;SDS011;26418;50.070;8.436;2023-02-18T15:18:31;1.35;;;1.00;;
40729;SDS011;26418;50.070;8.436;2023-02-18T15:21:01;2.22;;;1.25;;
40729;SDS011;26418;50.070;8.436;2023-02-18T15:23:29;2.60;;;0.83;;
40729;SDS011;26418;50.070;8.436;2023-02-18T15:25:55;3.85;;;1.27;;
40729;SDS011;26418;50.070;8.436;2023-02-18T15:28:23;1.83;;;1.00;;
40729;SDS011;26418;50.070;8.436;2023-02-18T15:31:01;1.20;;;0.60;;
40729;SDS011;26418;50.070;8.436;2023-02-18T15:33:28;1.33;;;0.73;;
40729;SDS011;26418;50.070;8.436;2023-02-18T15:36:01;2.95;;;1.30;;
40729;SDS011;26418;50.070;8.436;2023-02-18T15:38:28;1.40;;;0.70;;
40729;SDS011;26418;50.070;8.436;2023-02-18T15:40:54;2.42;;;1.00;;
40729;SDS011;26418;50.070;8.436;2023-02-18T15:43:20;3.30;;;1.00;;
40729;SDS011;26418;50.070;8.436;2023-02-18T15:45:48;3.03;;;1.27;;
40729;SDS011;26418;50.070;8.436;2023-02-18T15:48:30;1.23;;;0.73;;
40729;SDS011;26418;50.070;8.436;2023-02-18T15:51:09;0.82;;;0.63;;
40729;SDS011;26418;50.070;8.436;2023-02-18T15:53:38;0.55;;;0.47;;
40729;SDS011;26418;50.070;8.436;2023-02-18T15:56:06;1.00;;;0.50;;
40729;SDS011;26418;50.070;8.436;2023-02-18T15:58:34;0.93;;;0.70;;
40729;SDS011;26418;50.070;8.436;2023-02-18T16:01:01;3.17;;;0.60;;
40729;SDS011;26418;50.070;8.436;2023-02-18T16:06:08;2.55;;;0.60;;
40729;SDS011;26418;50.070;8.436;2023-02-18T16:08:35;4.15;;;0.90;;
40729;SDS011;26418;50.070;8.436;2023-02-18T16:11:04;0.93;;;0.63;;
40729;SDS011;26418;50.070;8.436;2023-02-18T16:13:34;1.17;;;0.65;;
40729;SDS011;26418;50.070;8.436;2023-02-18T16:16:02;1.45;;;0.88;;
40729;SDS011;26418;50.070;8.436;2023-02-18T16:18:34;1.52;;;0.80;;
40729;SDS011;26418;50.070;8.436;2023-02-18T16:23:53;2.97;;;0.98;;
40729;SDS011;26418;50.070;8.436;2023-02-18T16:29:09;3.35;;;1.08;;
40729;SDS011;26418;50.070;8.436;2023-02-18T16:31:36;5.35;;;1.25;;
40729;SDS011;26418;50.070;8.436;2023-02-18T16:34:02;2.75;;;1.10;;
40729;SDS011;26418;50.070;8.436;2023-02-18T16:36:27;1.85;;;1.05;;
40729;SDS011;26418;50.070;8.436;2023-02-18T16:38:53;1.17;;;0.75;;
40729;SDS011;26418;50.070;8.436;2023-02-18T16:41:18;1.52;;;0.65;;
40729;SDS011;26418;50.070;8.436;2023-02-18T16:43:44;2.42;;;1.23;;
40729;SDS011;26418;50.070;8.436;2023-02-18T16:46:15;3.00;;;1.42;;
40729;SDS011;26418;50.070;8.436;2023-02-18T16:48:44;1.52;;;0.90;;
40729;SDS011;26418;50.070;8.436;2023-02-18T16:51:17;4.57;;;1.00;;
40729;SDS011;26418;50.070;8.436;2023-02-18T16:53:46;3.33;;;1.00;;
40729;SDS011;26418;50.070;8.436;2023-02-18T16:56:17;1.13;;;0.70;;
40729;SDS011;26418;50.070;8.436;2023-02-18T16:58:45;1.55;;;0.77;;
40729;SDS011;26418;50.070;8.436;2023-02-18T17:01:14;2.13;;;1.20;;
40729;SDS011;26418;50.070;8.436;2023-02-18T17:03:45;1.73;;;1.20;;
40729;SDS011;26418;50.070;8.436;2023-02-18T17:06:11;4.10;;;1.23;;
40729;SDS011;26418;50.070;8.436;2023-02-18T17:08:38;2.05;;;0.93;;
40729;SDS011;26418;50.070;8.436;2023-02-18T17:11:03;2.72;;;1.48;;
40729;SDS011;26418;50.070;8.436;2023-02-18T17:13:28;1.98;;;1.15;;
40729;SDS011;26418;50.070;8.436;2023-02-18T17:15:56;2.58;;;1.20;;
40729;SDS011;26418;50.070;8.436;2023-02-18T17:18:22;3.97;;;1.65;;
40729;SDS011;26418;50.070;8.436;2023-02-18T17:20:48;2.63;;;1.52;;
40729;SDS011;26418;50.070;8.436;2023-02-18T17:23:16;3.03;;;2.25;;
40729;SDS011;26418;50.070;8.436;2023-02-18T17:25:45;2.55;;;1.58;;
40729;SDS011;26418;50.070;8.436;2023-02-18T17:28:12;1.70;;;1.58;;
40729;SDS011;26418;50.070;8.436;2023-02-18T17:30:39;2.35;;;1.20;;
40729;SDS011;26418;50.070;8.436;2023-02-18T17:33:06;2.85;;;1.50;;